createdAt,value
2023-05-01T00:01:36.561Z,100434.13
2023-05-01T00:04:04.510Z,100443.53
2023-05-01T00:06:33.574Z,100434.06
2023-05-01T00:09:01.113Z,100429.94
2023-05-01T00:11:28.614Z,100433.78
2023-05-01T00:13:56.041Z,100436.63
2023-05-01T00:16:23.344Z,100432.63
2023-05-01T00:18:51.097Z,100428.06
2023-05-01T00:21:18.601Z,100423.25
2023-05-01T00:23:45.851Z,100436.97
2023-05-01T00:29:44.508Z,100431.31
2023-05-01T00:32:12.202Z,100427.09
2023-05-01T00:34:39.407Z,100427.72
2023-05-01T00:37:06.860Z,100425.69
2023-05-01T00:39:34.307Z,100426.53
2023-05-01T00:42:02.262Z,100425.84
2023-05-01T00:44:29.575Z,100428.13
2023-05-01T00:47:00.236Z,100425.00
2023-05-01T00:49:27.382Z,100431.47
2023-05-01T00:51:54.757Z,100429.78
2023-05-01T00:54:23.210Z,100426.31
2023-05-01T00:56:51.427Z,100430.75
2023-05-01T00:59:18.676Z,100433.84
2023-05-01T01:01:47.132Z,100442.38
2023-05-01T01:04:14.452Z,100436.44
2023-05-01T01:07:08.334Z,100440.44
2023-05-01T01:10:04.677Z,100428.88
2023-05-01T01:12:38.668Z,100434.66
2023-05-01T01:15:12.542Z,100432.50
2023-05-01T01:17:48.999Z,100435.91
2023-05-01T01:20:31.794Z,100436.56
2023-05-01T01:23:18.380Z,100429.12
2023-05-01T01:26:04.764Z,100429.22
2023-05-01T01:28:46.520Z,100430.97
2023-05-01T01:35:01.656Z,100422.53
2023-05-01T01:37:36.131Z,100418.00
2023-05-01T01:40:07.200Z,100422.78
2023-05-01T01:42:39.185Z,100420.16
2023-05-01T01:45:13.005Z,100425.22
2023-05-01T01:47:42.061Z,100427.22
2023-05-01T01:50:11.565Z,100415.00
2023-05-01T01:52:40.998Z,100425.44
2023-05-01T01:55:11.494Z,100421.84
2023-05-01T01:57:40.169Z,100420.50
2023-05-01T02:00:11.395Z,100425.44
2023-05-01T02:02:41.597Z,100425.00
2023-05-01T02:05:14.754Z,100429.06
2023-05-01T02:07:43.783Z,100424.28
2023-05-01T02:10:14.072Z,100425.00
2023-05-01T02:12:43.016Z,100426.87
2023-05-01T02:15:11.027Z,100423.75
2023-05-01T02:17:38.733Z,100418.25
2023-05-01T02:20:06.624Z,100420.91
2023-05-01T02:22:34.302Z,100421.59
2023-05-01T02:25:04.143Z,100415.00
2023-05-01T02:27:34.517Z,100416.28
2023-05-01T02:33:26.532Z,100409.91
2023-05-01T02:39:25.491Z,100417.94
2023-05-01T02:41:53.920Z,100416.94
2023-05-01T02:44:22.441Z,100412.97
2023-05-01T02:46:49.870Z,100428.34
2023-05-01T02:49:18.802Z,100426.53
2023-05-01T02:51:46.810Z,100420.53
2023-05-01T02:54:14.527Z,100428.81
2023-05-01T02:56:42.957Z,100434.59
2023-05-01T02:59:10.260Z,100432.88
2023-05-01T03:01:38.203Z,100436.59
2023-05-01T03:04:06.152Z,100436.31
2023-05-01T03:06:33.473Z,100439.56
2023-05-01T03:09:01.143Z,100444.37
2023-05-01T03:11:28.585Z,100440.78
2023-05-01T03:13:56.600Z,100444.16
2023-05-01T03:16:24.744Z,100439.59
2023-05-01T03:18:52.351Z,100441.03
2023-05-01T03:21:19.687Z,100440.09
2023-05-01T03:23:47.059Z,100445.44
2023-05-01T03:29:45.369Z,100442.22
2023-05-01T03:32:12.870Z,100448.50
2023-05-01T03:34:40.375Z,100444.03
2023-05-01T03:37:07.588Z,100446.19
2023-05-01T03:39:35.016Z,100442.38
2023-05-01T03:42:05.187Z,100446.31
2023-05-01T03:44:32.914Z,100450.03
2023-05-01T03:47:00.851Z,100447.50
2023-05-01T03:49:28.945Z,100442.72
2023-05-01T03:51:56.748Z,100444.78
2023-05-01T03:54:24.650Z,100447.22
2023-05-01T03:56:53.370Z,100443.22
2023-05-01T03:59:21.553Z,100451.19
2023-05-01T04:01:49.718Z,100451.28
2023-05-01T04:04:17.832Z,100447.16
2023-05-01T04:06:48.712Z,100452.59
2023-05-01T04:09:16.296Z,100448.34
2023-05-01T04:11:44.057Z,100447.22
2023-05-01T04:14:11.483Z,100447.34
2023-05-01T04:20:01.417Z,100443.41
2023-05-01T04:22:30.328Z,100445.91
2023-05-01T04:28:31.103Z,100448.97
2023-05-01T04:34:29.622Z,100449.16
2023-05-01T04:37:00.123Z,100455.28
2023-05-01T04:39:27.818Z,100463.66
2023-05-01T04:41:57.106Z,100457.84
2023-05-01T04:44:25.302Z,100460.34
2023-05-01T04:46:52.732Z,100465.34
2023-05-01T04:49:22.045Z,100462.94
2023-05-01T04:51:49.540Z,100481.31
2023-05-01T04:54:17.805Z,100471.91
2023-05-01T04:56:46.504Z,100471.69
2023-05-01T04:59:14.047Z,100466.63
2023-05-01T05:01:41.473Z,100476.38
2023-05-01T05:04:09.023Z,100470.75
2023-05-01T05:06:36.749Z,100476.12
2023-05-01T05:09:05.847Z,100475.28
2023-05-01T05:11:33.205Z,100469.34
2023-05-01T05:14:00.982Z,100470.66
2023-05-01T05:16:28.407Z,100471.34
2023-05-01T05:22:38.236Z,100474.97
2023-05-01T05:28:51.176Z,100464.84
2023-05-01T05:34:51.387Z,100469.72
2023-05-01T05:37:18.873Z,100488.81
2023-05-01T05:39:47.764Z,100489.44
2023-05-01T05:42:15.325Z,100496.75
2023-05-01T05:44:42.946Z,100506.69
2023-05-01T05:47:11.921Z,100506.00
2023-05-01T05:49:55.751Z,100500.31
2023-05-01T05:59:51.004Z,100491.66
2023-05-01T06:02:20.416Z,100512.25
2023-05-01T06:04:48.251Z,100505.72
2023-05-01T06:10:50.384Z,100516.53
2023-05-01T06:20:29.917Z,100514.16
2023-05-01T06:26:31.465Z,100520.06
2023-05-01T06:32:29.259Z,100524.81
2023-05-01T06:42:03.376Z,100531.16
2023-05-01T06:48:05.524Z,100530.41
2023-05-01T07:21:27.250Z,100527.16
2023-05-01T07:34:32.302Z,100534.12
2023-05-01T08:06:23.498Z,100533.72
2023-05-01T08:08:51.466Z,100546.19
2023-05-01T08:11:18.778Z,100541.31
2023-05-01T08:13:46.322Z,100538.13
2023-05-01T08:16:14.209Z,100533.31
2023-05-01T08:18:41.610Z,100533.50
2023-05-01T08:21:10.907Z,100543.31
2023-05-01T08:27:11.791Z,100541.09
2023-05-01T08:33:31.013Z,100528.87
2023-05-01T08:45:55.303Z,100525.97
2023-05-01T08:48:24.247Z,100549.84
2023-05-01T08:50:52.258Z,100542.13
2023-05-01T08:53:21.103Z,100544.22
2023-05-01T08:55:49.108Z,100541.31
2023-05-01T08:58:18.076Z,100534.78
2023-05-01T09:00:53.808Z,100536.59
2023-05-01T09:06:55.373Z,100532.66
2023-05-01T09:09:22.945Z,100525.91
2023-05-01T09:11:50.450Z,100544.19
2023-05-01T09:14:17.848Z,100533.50
2023-05-01T09:23:04.128Z,100522.56
2023-05-01T09:25:31.576Z,100525.37
2023-05-01T09:27:58.750Z,100522.69
2023-05-01T09:30:34.272Z,100524.13
2023-05-01T09:39:44.269Z,100521.03
2023-05-01T09:42:11.928Z,100523.06
2023-05-01T09:44:43.459Z,100526.03
2023-05-01T09:47:11.074Z,100515.50
2023-05-01T09:49:47.340Z,100504.91
2023-05-01T09:52:15.277Z,100502.97
2023-05-01T09:54:43.462Z,100512.13
2023-05-01T09:57:11.001Z,100503.28
2023-05-01T09:59:39.011Z,100499.66
2023-05-01T10:02:07.056Z,100495.84
2023-05-01T10:04:35.283Z,100489.91
2023-05-01T10:07:22.876Z,100491.63
2023-05-01T10:09:52.145Z,100491.69
2023-05-01T10:15:25.955Z,100476.66
2023-05-01T10:18:10.165Z,100478.59
2023-05-01T10:27:22.437Z,100472.50
2023-05-01T10:29:52.040Z,100464.06
2023-05-01T10:42:19.769Z,100464.37
2023-05-01T10:54:55.515Z,100453.72
2023-05-01T11:01:14.128Z,100454.72
2023-05-01T11:33:20.147Z,100419.91
2023-05-01T11:45:46.549Z,100424.56
2023-05-01T12:02:13.284Z,100405.09
2023-05-01T12:04:41.809Z,100402.41
2023-05-01T12:07:20.615Z,100401.66
2023-05-01T12:09:49.460Z,100397.94
2023-05-01T12:12:39.059Z,100402.66
2023-05-01T12:18:50.203Z,100387.00
2023-05-01T12:24:52.830Z,100387.53
2023-05-01T12:44:00.711Z,100366.09
2023-05-01T12:59:05.779Z,100347.59
2023-05-01T13:01:33.490Z,100343.38
2023-05-01T13:04:00.702Z,100339.25
2023-05-01T13:06:33.995Z,100340.16
2023-05-01T13:12:24.603Z,100327.66
2023-05-01T13:14:52.585Z,100324.91
2023-05-01T13:17:25.721Z,100317.41
2023-05-01T13:19:55.311Z,100319.78
2023-05-01T13:26:16.350Z,100313.47
2023-05-01T13:28:45.421Z,100311.28
2023-05-01T13:34:44.696Z,100311.37
2023-05-01T13:37:15.255Z,100314.28
2023-05-01T13:39:43.757Z,100298.78
2023-05-01T13:42:12.263Z,100293.38
2023-05-01T13:44:44.789Z,100296.25
2023-05-01T13:50:43.577Z,100286.81
2023-05-01T13:56:53.221Z,100286.31
2023-05-01T14:05:52.283Z,100274.19
2023-05-01T14:08:26.141Z,100276.41
2023-05-01T14:10:53.896Z,100265.69
2023-05-01T14:13:21.593Z,100276.28
2023-05-01T14:15:49.421Z,100273.50
2023-05-01T14:18:19.888Z,100270.87
2023-05-01T14:20:47.722Z,100268.09
2023-05-01T14:23:20.528Z,100260.19
2023-05-01T14:25:49.246Z,100254.50
2023-05-01T14:28:19.813Z,100261.91
2023-05-01T14:34:19.016Z,100247.47
2023-05-01T14:40:29.452Z,100243.72
2023-05-01T14:50:23.174Z,100232.09
2023-05-01T14:52:57.838Z,100235.72
2023-05-01T14:55:52.123Z,100230.87
2023-05-01T15:02:04.269Z,100224.81
2023-05-01T15:04:32.150Z,100231.66
2023-05-01T15:06:59.425Z,100232.50
2023-05-01T15:09:29.537Z,100223.00
2023-05-01T15:11:58.531Z,100224.88
2023-05-01T15:14:27.042Z,100231.28
2023-05-01T15:16:54.457Z,100223.09
2023-05-01T15:19:22.709Z,100218.56
2023-05-01T15:25:35.320Z,100222.81
2023-05-01T15:32:08.150Z,100208.56
2023-05-01T15:38:59.250Z,100211.88
2023-05-01T15:44:58.065Z,100209.44
2023-05-01T15:47:26.072Z,100213.59
2023-05-01T15:49:53.877Z,100208.56
2023-05-01T15:52:27.539Z,100212.03
2023-05-01T15:58:36.381Z,100210.59
2023-05-01T16:01:04.527Z,100201.44
2023-05-01T16:03:32.367Z,100208.97
2023-05-01T16:05:59.784Z,100210.94
2023-05-01T16:08:27.636Z,100211.44
2023-05-01T16:10:56.674Z,100213.25
2023-05-01T16:13:31.371Z,100213.16
2023-05-01T16:19:32.319Z,100203.41
2023-05-01T16:25:42.061Z,100198.94
2023-05-01T16:35:20.287Z,100192.44
2023-05-01T16:41:18.636Z,100203.56
2023-05-01T16:43:46.539Z,100191.22
2023-05-01T16:46:16.149Z,100196.53
2023-05-01T16:48:43.816Z,100193.25
2023-05-01T16:51:11.965Z,100197.28
2023-05-01T16:53:39.302Z,100196.47
2023-05-01T16:56:09.034Z,100197.19
2023-05-01T16:58:37.236Z,100191.66
2023-05-01T17:01:04.957Z,100197.19
2023-05-01T17:03:32.339Z,100198.03
2023-05-01T17:05:59.936Z,100194.59
2023-05-01T17:08:27.990Z,100205.22
2023-05-01T17:10:55.254Z,100200.97
2023-05-01T17:13:22.822Z,100198.38
2023-05-01T17:15:50.489Z,100201.22
2023-05-01T17:18:18.074Z,100193.25
2023-05-01T17:20:46.848Z,100194.44
2023-05-01T17:23:14.386Z,100194.34
2023-05-01T17:25:41.666Z,100187.03
2023-05-01T17:28:09.538Z,100189.13
2023-05-01T17:34:08.702Z,100189.41
2023-05-01T17:36:36.764Z,100188.94
2023-05-01T17:39:04.855Z,100178.63
2023-05-01T17:41:32.126Z,100185.53
2023-05-01T17:43:59.643Z,100179.75
2023-05-01T17:46:27.343Z,100178.97
2023-05-01T17:48:55.060Z,100182.66
2023-05-01T17:51:23.262Z,100183.72
2023-05-01T17:54:04.250Z,100183.56
2023-05-01T17:56:31.811Z,100180.59
2023-05-01T17:58:59.977Z,100182.78
2023-05-01T18:01:28.837Z,100194.00
2023-05-01T18:03:56.660Z,100187.47
2023-05-01T18:06:24.994Z,100188.50
2023-05-01T18:08:53.180Z,100184.81
2023-05-01T18:11:20.968Z,100187.00
2023-05-01T18:13:51.324Z,100178.69
2023-05-01T18:19:53.033Z,100181.41
2023-05-01T18:26:00.497Z,100188.12
2023-05-01T18:32:01.322Z,100188.66
2023-05-01T18:38:00.414Z,100187.16
2023-05-01T18:40:29.489Z,100195.38
2023-05-01T18:42:56.881Z,100203.37
2023-05-01T18:45:26.516Z,100195.50
2023-05-01T18:48:00.587Z,100202.03
2023-05-01T18:54:19.945Z,100202.19
2023-05-01T18:56:48.284Z,100203.50
2023-05-01T18:59:17.840Z,100205.66
2023-05-01T19:01:50.976Z,100207.84
2023-05-01T19:04:19.660Z,100213.19
2023-05-01T19:06:47.322Z,100217.84
2023-05-01T19:09:15.137Z,100221.97
2023-05-01T19:11:43.257Z,100222.81
2023-05-01T19:14:11.079Z,100219.44
2023-05-01T19:16:39.144Z,100222.09
2023-05-01T19:19:09.468Z,100224.91
2023-05-01T19:21:38.704Z,100219.06
2023-05-01T19:24:08.720Z,100218.06
2023-05-01T19:26:45.178Z,100208.75
2023-05-01T19:29:13.527Z,100213.09
2023-05-01T19:31:42.970Z,100210.44
2023-05-01T19:44:33.667Z,100211.84
2023-05-01T19:47:05.446Z,100207.84
2023-05-01T19:49:49.048Z,100212.03
2023-05-01T19:55:48.529Z,100213.03
2023-05-01T20:01:47.501Z,100217.69
2023-05-01T20:04:15.668Z,100224.59
2023-05-01T20:06:43.228Z,100212.59
2023-05-01T20:09:11.531Z,100220.88
2023-05-01T20:11:39.797Z,100224.69
2023-05-01T20:14:07.502Z,100223.22
2023-05-01T20:16:36.335Z,100224.63
2023-05-01T20:19:04.108Z,100219.38
2023-05-01T20:21:32.670Z,100222.12
2023-05-01T20:24:00.139Z,100218.62
2023-05-01T20:26:28.617Z,100224.56
2023-05-01T20:28:57.105Z,100222.03
2023-05-01T20:34:55.576Z,100223.72
2023-05-01T20:37:23.436Z,100224.69
2023-05-01T20:39:50.847Z,100222.91
2023-05-01T20:42:18.309Z,100215.78
2023-05-01T20:44:45.960Z,100227.72
2023-05-01T20:47:14.347Z,100222.41
2023-05-01T20:49:41.610Z,100222.66
2023-05-01T20:52:09.380Z,100227.84
2023-05-01T20:54:37.180Z,100240.75
2023-05-01T20:57:04.639Z,100231.91
2023-05-01T20:59:32.717Z,100235.19
2023-05-01T21:02:04.535Z,100226.66
2023-05-01T21:04:32.120Z,100232.69
2023-05-01T21:06:59.597Z,100237.91
2023-05-01T21:09:26.814Z,100240.16
2023-05-01T21:11:54.650Z,100239.69
2023-05-01T21:14:21.910Z,100234.03
2023-05-01T21:16:49.290Z,100237.28
2023-05-01T21:19:16.821Z,100235.75
2023-05-01T21:21:44.060Z,100239.03
2023-05-01T21:24:19.337Z,100241.84
2023-05-01T21:26:46.786Z,100237.44
2023-05-01T21:29:14.367Z,100241.25
2023-05-01T21:35:17.278Z,100243.47
2023-05-01T21:37:46.540Z,100243.38
2023-05-01T21:40:14.856Z,100249.75
2023-05-01T21:42:42.183Z,100246.72
2023-05-01T21:45:15.176Z,100251.44
2023-05-01T21:47:45.239Z,100251.94
2023-05-01T21:50:16.108Z,100247.13
2023-05-01T21:52:43.850Z,100240.81
2023-05-01T21:55:16.925Z,100252.19
2023-05-01T21:57:44.736Z,100241.97
2023-05-01T22:00:12.643Z,100254.37
2023-05-01T22:02:42.515Z,100246.03
2023-05-01T22:05:11.444Z,100250.22
2023-05-01T22:07:43.806Z,100250.72
2023-05-01T22:10:16.074Z,100246.12
2023-05-01T22:12:43.852Z,100255.09
2023-05-01T22:15:13.675Z,100246.12
2023-05-01T22:17:41.248Z,100246.97
2023-05-01T22:20:09.286Z,100241.38
2023-05-01T22:22:38.245Z,100239.84
2023-05-01T22:25:06.189Z,100235.38
2023-05-01T22:27:33.981Z,100231.03
2023-05-01T22:30:02.631Z,100246.53
2023-05-01T22:32:30.239Z,100242.03
2023-05-01T22:34:57.454Z,100238.03
2023-05-01T22:37:25.842Z,100241.88
2023-05-01T22:39:53.633Z,100243.25
2023-05-01T22:42:21.396Z,100240.31
2023-05-01T22:44:49.803Z,100236.50
2023-05-01T22:47:17.603Z,100239.31
2023-05-01T22:49:45.031Z,100234.63
2023-05-01T22:52:12.448Z,100232.16
2023-05-01T22:54:39.569Z,100235.00
2023-05-01T22:57:06.706Z,100233.44
2023-05-01T22:59:34.266Z,100235.00
2023-05-01T23:05:32.684Z,100231.16
2023-05-01T23:08:00.155Z,100239.72
2023-05-01T23:10:28.495Z,100233.87
2023-05-01T23:12:55.870Z,100237.41
2023-05-01T23:15:25.169Z,100229.38
2023-05-01T23:17:52.607Z,100235.19
2023-05-01T23:20:24.261Z,100234.59
2023-05-01T23:22:51.964Z,100228.97
2023-05-01T23:28:49.658Z,100233.66
2023-05-01T23:34:47.596Z,100231.16
2023-05-01T23:37:15.243Z,100233.50
2023-05-01T23:39:42.412Z,100232.09
2023-05-01T23:42:09.668Z,100231.94
2023-05-01T23:44:37.185Z,100230.53
2023-05-01T23:47:04.622Z,100228.78
2023-05-01T23:49:32.036Z,100226.91
2023-05-01T23:51:59.505Z,100229.50
2023-05-01T23:54:27.030Z,100229.12
2023-05-01T23:56:54.555Z,100218.25
2023-05-01T23:59:21.989Z,100232.00
